createdAt,value
2018-06-24T00:02:02.808Z,15.71
2018-06-24T00:04:07.671Z,15.69
2018-06-24T00:06:12.553Z,15.67
2018-06-24T00:08:17.304Z,15.47
2018-06-24T00:10:22.051Z,15.55
2018-06-24T00:12:26.907Z,15.47
2018-06-24T00:14:31.660Z,15.57
2018-06-24T00:16:36.571Z,15.75
2018-06-24T00:18:41.365Z,15.73
2018-06-24T00:20:46.161Z,15.82
2018-06-24T00:22:50.927Z,15.77
2018-06-24T00:24:55.794Z,15.41
2018-06-24T00:27:00.578Z,15.56
2018-06-24T00:29:05.325Z,15.59
2018-06-24T00:31:10.185Z,14.89
2018-06-24T00:33:14.961Z,15.59
2018-06-24T00:35:19.764Z,15.60
2018-06-24T00:37:24.659Z,15.50
2018-06-24T00:39:29.527Z,15.56
2018-06-24T00:41:34.259Z,15.24
2018-06-24T00:43:39.039Z,15.49
2018-06-24T00:45:43.516Z,15.51
2018-06-24T00:47:48.399Z,15.47
2018-06-24T00:49:53.171Z,15.47
2018-06-24T00:51:57.872Z,15.38
2018-06-24T00:54:02.656Z,15.36
2018-06-24T00:56:07.331Z,15.36
2018-06-24T00:58:12.058Z,15.38
2018-06-24T01:00:17.848Z,15.38
2018-06-24T01:02:22.789Z,15.41
2018-06-24T01:04:27.484Z,15.35
2018-06-24T01:06:32.192Z,15.35
2018-06-24T01:08:36.945Z,15.33
2018-06-24T01:10:41.748Z,15.32
2018-06-24T01:12:46.538Z,15.34
2018-06-24T01:14:51.374Z,15.34
2018-06-24T01:16:56.247Z,15.36
2018-06-24T01:19:00.983Z,15.38
2018-06-24T01:21:05.515Z,15.35
2018-06-24T01:23:10.319Z,15.33
2018-06-24T01:25:15.047Z,15.35
2018-06-24T01:27:19.935Z,15.28
2018-06-24T01:29:24.640Z,15.21
2018-06-24T01:31:29.413Z,15.18
2018-06-24T01:33:34.188Z,15.10
2018-06-24T01:35:38.937Z,15.14
2018-06-24T01:37:43.660Z,15.12
2018-06-24T01:39:48.479Z,15.19
2018-06-24T01:41:53.174Z,15.25
2018-06-24T01:43:57.904Z,14.78
2018-06-24T01:46:02.688Z,15.31
2018-06-24T01:48:07.395Z,15.32
2018-06-24T01:50:12.125Z,15.35
2018-06-24T01:52:16.816Z,15.35
2018-06-24T01:54:21.582Z,15.33
2018-06-24T01:56:26.286Z,15.15
2018-06-24T01:58:31.066Z,15.24
2018-06-24T02:00:35.899Z,15.16
2018-06-24T02:02:40.584Z,15.12
2018-06-24T02:04:45.295Z,14.95
2018-06-24T02:06:49.940Z,14.79
2018-06-24T02:08:54.641Z,14.72
2018-06-24T02:10:59.366Z,14.71
2018-06-24T02:13:04.191Z,14.75
2018-06-24T02:15:08.943Z,14.71
2018-06-24T02:17:13.649Z,14.57
2018-06-24T02:19:18.399Z,14.68
2018-06-24T02:21:23.138Z,14.59
2018-06-24T02:23:27.913Z,14.54
2018-06-24T02:25:32.539Z,14.58
2018-06-24T02:27:37.472Z,14.44
2018-06-24T02:29:42.277Z,14.36
2018-06-24T02:31:46.917Z,14.07
2018-06-24T02:33:51.573Z,14.35
2018-06-24T02:35:56.323Z,14.36
2018-06-24T02:38:01.161Z,14.30
2018-06-24T02:40:05.899Z,14.32
2018-06-24T02:42:10.764Z,14.37
2018-06-24T02:44:15.381Z,14.35
2018-06-24T02:46:20.209Z,14.31
2018-06-24T02:48:24.981Z,14.21
2018-06-24T02:50:29.759Z,14.24
2018-06-24T02:52:34.755Z,14.16
2018-06-24T02:54:39.389Z,14.19
2018-06-24T02:56:44.088Z,14.16
2018-06-24T02:58:48.762Z,14.18
2018-06-24T03:00:53.557Z,14.10
2018-06-24T03:02:58.295Z,13.96
2018-06-24T03:05:03.007Z,14.11
2018-06-24T03:07:07.774Z,14.09
2018-06-24T03:09:12.834Z,14.15
2018-06-24T03:11:17.517Z,14.04
2018-06-24T03:13:22.403Z,14.01
2018-06-24T03:15:27.002Z,13.93
2018-06-24T03:17:32.071Z,13.79
2018-06-24T03:19:36.749Z,13.72
2018-06-24T03:21:41.482Z,13.73
2018-06-24T03:23:46.189Z,13.60
2018-06-24T03:25:50.931Z,13.52
2018-06-24T03:27:55.671Z,13.59
2018-06-24T03:30:00.387Z,13.46
2018-06-24T03:32:05.121Z,13.47
2018-06-24T03:34:09.783Z,13.39
2018-06-24T03:36:14.448Z,13.32
2018-06-24T03:38:19.109Z,13.24
2018-06-24T03:40:23.818Z,13.26
2018-06-24T03:42:28.467Z,13.24
2018-06-24T03:44:33.208Z,13.18
2018-06-24T03:46:38.048Z,13.22
2018-06-24T03:48:42.719Z,13.24
2018-06-24T03:50:47.442Z,13.24
2018-06-24T03:52:52.095Z,13.32
2018-06-24T03:54:56.821Z,13.34
2018-06-24T03:57:01.678Z,13.33
2018-06-24T03:59:06.505Z,13.45
2018-06-24T04:01:11.281Z,13.28
2018-06-24T04:03:15.904Z,13.34
2018-06-24T04:05:20.527Z,13.34
2018-06-24T04:07:25.200Z,13.18
2018-06-24T04:09:29.871Z,13.45
2018-06-24T04:11:34.585Z,13.49
2018-06-24T04:13:39.289Z,13.50
2018-06-24T04:15:43.950Z,13.63
2018-06-24T04:17:48.698Z,13.43
2018-06-24T04:19:53.286Z,13.55
2018-06-24T04:21:57.942Z,13.57
2018-06-24T04:24:02.529Z,13.58
2018-06-24T04:26:08.318Z,13.53
2018-06-24T04:28:13.074Z,13.39
2018-06-24T04:30:17.759Z,13.43
2018-06-24T04:32:22.358Z,13.46
2018-06-24T04:34:27.000Z,13.26
2018-06-24T04:36:31.666Z,13.41
2018-06-24T04:38:36.424Z,13.36
2018-06-24T04:40:41.124Z,13.32
2018-06-24T04:42:45.848Z,13.43
2018-06-24T04:44:50.489Z,13.44
2018-06-24T04:46:55.403Z,13.51
2018-06-24T04:49:00.218Z,13.42
2018-06-24T04:51:05.230Z,13.51
2018-06-24T04:53:09.990Z,13.64
2018-06-24T04:55:14.607Z,13.67
2018-06-24T04:57:19.221Z,13.79
2018-06-24T04:59:24.053Z,13.73
2018-06-24T05:01:28.681Z,13.50
2018-06-24T05:03:33.272Z,13.78
2018-06-24T05:05:38.084Z,13.91
2018-06-24T05:07:42.751Z,14.00
2018-06-24T05:09:47.380Z,13.97
2018-06-24T05:11:52.085Z,13.82
2018-06-24T05:13:56.811Z,13.81
2018-06-24T05:16:01.434Z,13.76
2018-06-24T05:18:06.779Z,13.71
2018-06-24T05:20:11.404Z,13.67
2018-06-24T05:22:16.117Z,13.69
2018-06-24T05:24:20.806Z,13.65
2018-06-24T05:26:25.833Z,13.41
2018-06-24T05:28:30.522Z,13.81
2018-06-24T05:30:35.185Z,14.03
2018-06-24T05:32:40.123Z,14.05
2018-06-24T05:34:44.926Z,14.14
2018-06-24T05:36:49.860Z,14.25
2018-06-24T05:38:54.547Z,14.24
2018-06-24T05:40:59.178Z,14.08
2018-06-24T05:43:03.827Z,14.15
2018-06-24T05:45:08.659Z,14.17
2018-06-24T05:47:13.543Z,14.21
2018-06-24T05:49:18.296Z,14.32
2018-06-24T05:51:23.240Z,14.25
2018-06-24T05:53:28.479Z,14.20
2018-06-24T05:55:33.533Z,14.35
2018-06-24T05:57:38.489Z,14.41
2018-06-24T05:59:43.324Z,14.52
2018-06-24T06:01:48.122Z,14.54
2018-06-24T06:03:53.770Z,14.68
2018-06-24T06:05:58.596Z,14.64
2018-06-24T06:08:03.339Z,14.55
2018-06-24T06:10:08.360Z,14.84
2018-06-24T06:12:13.282Z,14.82
2018-06-24T06:14:18.286Z,14.50
2018-06-24T06:16:23.033Z,14.90
2018-06-24T06:18:27.729Z,14.76
2018-06-24T06:20:32.445Z,14.86
2018-06-24T06:22:37.224Z,15.03
2018-06-24T06:24:41.928Z,14.93
2018-06-24T06:26:46.615Z,14.96
2018-06-24T06:28:51.285Z,15.19
2018-06-24T06:30:56.291Z,15.36
2018-06-24T06:33:01.010Z,15.49
2018-06-24T06:35:06.395Z,15.53
2018-06-24T06:37:11.399Z,15.65
2018-06-24T06:39:16.146Z,14.71
2018-06-24T06:41:21.059Z,15.60
2018-06-24T06:43:25.810Z,15.66
2018-06-24T06:45:30.815Z,15.35
2018-06-24T06:47:35.662Z,15.57
2018-06-24T06:49:40.963Z,15.58
2018-06-24T06:51:45.860Z,15.83
2018-06-24T06:53:50.655Z,15.76
2018-06-24T06:55:55.451Z,15.99
2018-06-24T06:58:00.244Z,15.69
2018-06-24T07:00:05.978Z,15.96
2018-06-24T07:02:11.115Z,16.08
2018-06-24T07:04:15.933Z,16.00
2018-06-24T07:06:22.768Z,14.68
2018-06-24T07:08:27.486Z,15.75
2018-06-24T07:10:32.227Z,16.17
2018-06-24T07:12:37.066Z,15.97
2018-06-24T07:14:41.894Z,15.77
2018-06-24T07:16:46.669Z,15.46
2018-06-24T07:18:51.427Z,15.36
2018-06-24T07:20:56.554Z,15.83
2018-06-24T07:23:01.455Z,15.86
2018-06-24T07:25:06.416Z,15.64
2018-06-24T07:27:11.238Z,15.90
2018-06-24T07:29:15.995Z,15.73
2018-06-24T07:31:20.803Z,15.83
2018-06-24T07:33:25.587Z,15.58
2018-06-24T07:35:30.428Z,15.67
2018-06-24T07:37:35.207Z,15.88
2018-06-24T07:39:39.940Z,16.04
2018-06-24T07:41:44.778Z,16.35
2018-06-24T07:43:49.560Z,16.07
2018-06-24T07:45:54.487Z,16.32
2018-06-24T07:47:59.365Z,16.37
2018-06-24T07:50:04.435Z,16.27
2018-06-24T07:52:09.315Z,15.96
2018-06-24T07:54:14.266Z,16.21
2018-06-24T07:56:19.102Z,16.02
2018-06-24T08:00:32.943Z,15.93
2018-06-24T08:02:37.710Z,16.02
2018-06-24T08:04:42.700Z,16.26
2018-06-24T08:06:47.436Z,16.51
2018-06-24T08:08:52.818Z,16.89
2018-06-24T08:10:57.756Z,16.33
2018-06-24T08:13:02.732Z,16.20
2018-06-24T08:15:07.567Z,16.31
2018-06-24T08:17:12.474Z,16.15
2018-06-24T08:19:17.375Z,16.32
2018-06-24T08:21:22.200Z,16.51
2018-06-24T08:23:26.903Z,16.78
2018-06-24T08:25:31.765Z,16.54
2018-06-24T08:27:36.580Z,16.81
2018-06-24T08:29:41.338Z,16.68
2018-06-24T08:31:46.157Z,16.73
2018-06-24T08:33:50.973Z,16.91
2018-06-24T08:35:56.049Z,16.56
2018-06-24T08:38:00.914Z,16.71
2018-06-24T08:40:05.808Z,17.39
2018-06-24T08:42:10.887Z,17.63
2018-06-24T08:44:15.608Z,17.34
2018-06-24T08:46:20.376Z,17.18
2018-06-24T08:48:26.007Z,17.18
2018-06-24T08:50:30.855Z,16.99
2018-06-24T08:52:35.992Z,16.84
2018-06-24T08:54:40.720Z,17.01
2018-06-24T08:56:45.628Z,16.92
2018-06-24T08:58:50.444Z,17.07
2018-06-24T09:00:55.559Z,17.13
2018-06-24T09:03:00.885Z,17.27
2018-06-24T09:05:05.663Z,17.08
2018-06-24T09:07:10.452Z,17.43
2018-06-24T09:09:15.157Z,17.17
2018-06-24T09:11:20.014Z,17.61
2018-06-24T09:13:24.802Z,17.52
2018-06-24T09:15:29.697Z,17.40
2018-06-24T09:17:34.495Z,17.47
2018-06-24T09:19:39.250Z,17.51
2018-06-24T09:21:44.074Z,17.21
2018-06-24T09:23:48.842Z,17.48
2018-06-24T09:25:53.641Z,17.31
2018-06-24T09:27:58.369Z,17.13
2018-06-24T09:30:03.147Z,17.78
2018-06-24T09:32:07.888Z,17.48
2018-06-24T09:34:15.266Z,17.58
2018-06-24T09:36:22.013Z,17.17
2018-06-24T09:38:26.843Z,17.01
2018-06-24T09:40:31.840Z,16.94
2018-06-24T09:42:36.600Z,17.30
2018-06-24T09:44:41.366Z,17.41
2018-06-24T09:46:46.166Z,17.29
2018-06-24T09:48:50.992Z,17.11
2018-06-24T09:50:55.722Z,17.08
2018-06-24T09:53:00.453Z,17.27
2018-06-24T09:55:05.362Z,17.18
2018-06-24T09:57:10.192Z,17.41
2018-06-24T09:59:15.272Z,17.12
2018-06-24T10:01:20.220Z,17.09
2018-06-24T10:03:25.219Z,17.51
2018-06-24T10:05:30.004Z,17.24
2018-06-24T10:07:34.963Z,17.21
2018-06-24T10:09:39.844Z,17.79
2018-06-24T10:11:44.649Z,17.28
2018-06-24T10:13:49.501Z,17.50
2018-06-24T10:15:54.781Z,17.88
2018-06-24T10:17:59.618Z,17.69
2018-06-24T10:20:04.771Z,17.72
2018-06-24T10:22:09.496Z,17.80
2018-06-24T10:24:14.295Z,17.63
2018-06-24T10:26:22.242Z,17.83
2018-06-24T10:28:28.496Z,18.19
2018-06-24T10:30:33.476Z,18.00
2018-06-24T10:32:38.307Z,18.17
2018-06-24T10:34:43.102Z,18.27
2018-06-24T10:36:47.948Z,18.46
2018-06-24T10:38:52.830Z,18.77
2018-06-24T10:40:57.623Z,19.22
2018-06-24T10:43:02.613Z,18.95
2018-06-24T10:45:07.511Z,18.39
2018-06-24T10:47:12.433Z,18.49
2018-06-24T10:49:17.467Z,18.45
2018-06-24T10:51:22.295Z,18.74
2018-06-24T10:53:27.080Z,18.91
2018-06-24T10:55:32.228Z,18.90
2018-06-24T10:57:37.203Z,18.97
2018-06-24T10:59:42.063Z,19.15
2018-06-24T11:03:45.159Z,18.69
2018-06-24T11:05:49.936Z,18.26
2018-06-24T11:07:55.008Z,18.35
2018-06-24T11:09:59.863Z,18.18
2018-06-24T11:12:04.642Z,17.95
2018-06-24T11:14:09.533Z,19.38
2018-06-24T11:16:14.454Z,19.09
2018-06-24T11:18:19.290Z,19.28
2018-06-24T11:20:24.080Z,19.25
2018-06-24T11:22:28.906Z,19.18
2018-06-24T11:24:33.800Z,19.46
2018-06-24T11:26:39.010Z,19.33
2018-06-24T11:28:43.857Z,19.00
2018-06-24T11:30:48.924Z,19.11
2018-06-24T11:32:54.029Z,19.33
2018-06-24T11:34:58.921Z,18.95
2018-06-24T11:37:03.909Z,19.42
2018-06-24T11:39:10.612Z,19.22
2018-06-24T11:41:15.489Z,19.06
2018-06-24T11:43:20.369Z,18.72
2018-06-24T11:45:25.382Z,18.62
2018-06-24T11:47:30.337Z,18.70
2018-06-24T11:49:35.438Z,18.77
2018-06-24T11:51:40.322Z,18.85
2018-06-24T11:53:45.259Z,18.56
2018-06-24T11:55:51.628Z,18.19
2018-06-24T11:57:56.599Z,18.86
2018-06-24T12:00:01.438Z,19.14
2018-06-24T12:02:06.372Z,19.15
2018-06-24T12:04:11.338Z,19.11
2018-06-24T12:06:16.112Z,18.86
2018-06-24T12:08:21.016Z,18.98
2018-06-24T12:10:25.954Z,18.66
2018-06-24T12:12:30.862Z,18.73
2018-06-24T12:14:35.929Z,19.45
2018-06-24T12:16:40.795Z,19.45
2018-06-24T12:18:45.614Z,19.12
2018-06-24T12:20:50.508Z,18.72
2018-06-24T12:22:55.371Z,19.02
2018-06-24T12:25:00.166Z,19.43
2018-06-24T12:27:05.221Z,19.70
2018-06-24T12:29:10.199Z,19.33
2018-06-24T12:31:15.362Z,19.42
2018-06-24T12:33:20.236Z,19.66
2018-06-24T12:35:25.105Z,19.45
2018-06-24T12:37:30.052Z,19.48
2018-06-24T12:39:34.795Z,19.06
2018-06-24T12:41:39.700Z,19.31
2018-06-24T12:43:44.629Z,19.23
2018-06-24T12:45:49.743Z,19.50
2018-06-24T12:47:54.599Z,19.57
2018-06-24T12:52:14.544Z,19.51
2018-06-24T12:54:19.405Z,19.14
2018-06-24T12:56:24.351Z,19.01
2018-06-24T12:58:29.847Z,19.10
2018-06-24T13:00:35.130Z,18.99
2018-06-24T13:02:39.463Z,19.09
2018-06-24T13:04:44.500Z,18.63
2018-06-24T13:06:49.383Z,18.79
2018-06-24T13:08:54.950Z,18.99
2018-06-24T13:11:00.161Z,19.09
2018-06-24T13:13:05.795Z,19.04
2018-06-24T13:15:11.392Z,19.31
2018-06-24T13:17:18.309Z,18.93
2018-06-24T13:19:23.415Z,19.38
2018-06-24T13:21:28.308Z,19.04
2018-06-24T13:23:34.473Z,19.05
2018-06-24T13:25:39.532Z,19.19
2018-06-24T13:27:44.345Z,19.27
2018-06-24T13:29:49.367Z,19.45
2018-06-24T13:31:54.484Z,19.40
2018-06-24T13:33:59.750Z,19.30
2018-06-24T13:36:04.949Z,19.33
2018-06-24T13:38:10.612Z,19.04
2018-06-24T13:40:15.948Z,18.90
2018-06-24T13:42:21.105Z,19.37
2018-06-24T13:44:26.161Z,18.94
2018-06-24T13:46:31.175Z,18.98
2018-06-24T13:48:56.003Z,19.06
2018-06-24T13:51:41.152Z,19.20
2018-06-24T13:53:52.868Z,18.94
2018-06-24T13:56:06.144Z,18.75
2018-06-24T13:58:35.017Z,18.69
2018-06-24T14:00:58.009Z,18.20
2018-06-24T14:03:42.425Z,18.51
2018-06-24T14:06:18.276Z,18.63
2018-06-24T14:08:35.165Z,18.70
2018-06-24T14:10:52.185Z,18.47
2018-06-24T14:13:25.641Z,18.79
2018-06-24T14:15:30.560Z,19.20
2018-06-24T14:17:41.709Z,18.90
2018-06-24T14:19:52.525Z,19.15
2018-06-24T14:21:59.799Z,19.05
2018-06-24T14:24:08.487Z,19.06
2018-06-24T14:26:22.561Z,18.87
2018-06-24T14:28:57.973Z,19.07
2018-06-24T14:31:31.506Z,19.08
2018-06-24T14:34:11.185Z,18.71
2018-06-24T14:36:38.563Z,18.71
2018-06-24T14:39:03.742Z,19.00
2018-06-24T14:41:23.158Z,18.75
2018-06-24T14:43:33.500Z,18.95
2018-06-24T14:45:41.026Z,18.96
2018-06-24T14:48:00.694Z,18.86
2018-06-24T14:50:09.646Z,18.86
2018-06-24T14:52:14.768Z,18.66
2018-06-24T14:56:21.497Z,18.25
2018-06-24T14:58:26.341Z,18.46
2018-06-24T15:00:31.263Z,18.63
2018-06-24T15:02:40.392Z,18.60
2018-06-24T15:04:45.219Z,18.45
2018-06-24T15:06:50.104Z,18.64
2018-06-24T15:08:55.216Z,18.32
2018-06-24T15:11:00.869Z,18.25
2018-06-24T15:13:10.339Z,18.28
2018-06-24T15:15:30.627Z,17.84
2018-06-24T15:17:49.221Z,17.92
2018-06-24T15:19:55.751Z,17.95
2018-06-24T15:22:25.076Z,17.84
2018-06-24T15:24:44.982Z,18.03
2018-06-24T15:27:00.408Z,18.06
2018-06-24T15:29:10.012Z,18.15
2018-06-24T15:31:18.609Z,17.99
2018-06-24T15:33:23.629Z,18.16
2018-06-24T15:36:01.208Z,18.30
2018-06-24T15:38:14.221Z,18.54
2018-06-24T15:40:35.128Z,18.86
2018-06-24T15:42:59.956Z,18.94
2018-06-24T15:45:07.452Z,19.13
2018-06-24T15:47:26.546Z,19.11
2018-06-24T15:49:56.060Z,18.85
2018-06-24T15:52:19.730Z,18.95
2018-06-24T15:54:39.779Z,18.58
2018-06-24T15:57:02.287Z,18.69
2018-06-24T15:59:18.132Z,18.41
2018-06-24T16:01:29.010Z,18.38
2018-06-24T16:03:48.572Z,18.28
2018-06-24T16:05:56.116Z,18.06
2018-06-24T16:08:14.012Z,18.07
2018-06-24T16:10:26.110Z,18.09
2018-06-24T16:12:48.655Z,17.97
2018-06-24T16:15:19.925Z,17.29
2018-06-24T16:17:28.332Z,17.65
2018-06-24T16:19:51.130Z,17.54
2018-06-24T16:22:14.508Z,17.08
2018-06-24T16:24:53.601Z,16.77
2018-06-24T16:27:03.451Z,15.59
2018-06-24T16:29:11.347Z,17.32
2018-06-24T16:31:31.401Z,17.42
2018-06-24T16:33:43.322Z,17.65
2018-06-24T16:35:49.573Z,17.53
2018-06-24T16:37:58.703Z,17.55
2018-06-24T16:40:18.989Z,17.72
2018-06-24T16:42:40.988Z,16.76
2018-06-24T16:45:04.728Z,17.62
2018-06-24T16:47:22.759Z,17.67
2018-06-24T16:49:45.856Z,17.58
2018-06-24T16:52:03.669Z,17.61
2018-06-24T16:54:35.746Z,17.01
2018-06-24T16:56:51.476Z,17.58
2018-06-24T16:59:24.942Z,17.64
2018-06-24T17:01:40.025Z,17.55
2018-06-24T17:04:23.805Z,17.44
2018-06-24T17:06:42.377Z,17.60
2018-06-24T17:08:52.550Z,16.63
2018-06-24T17:11:02.557Z,17.16
2018-06-24T17:13:24.734Z,17.42
2018-06-24T17:15:55.000Z,17.23
2018-06-24T17:18:28.584Z,17.21
2018-06-24T17:20:52.181Z,17.45
2018-06-24T17:23:08.270Z,16.93
2018-06-24T17:25:19.071Z,17.28
2018-06-24T17:28:02.707Z,17.33
2018-06-24T17:30:22.677Z,17.24
2018-06-24T17:32:36.599Z,17.22
2018-06-24T17:35:07.746Z,17.37
2018-06-24T17:37:45.029Z,16.60
2018-06-24T17:40:18.234Z,17.30
2018-06-24T17:42:52.433Z,17.23
2018-06-24T17:48:10.313Z,17.02
2018-06-24T17:50:32.091Z,17.36
2018-06-24T17:53:05.063Z,17.18
2018-06-24T17:55:34.884Z,17.31
2018-06-24T17:58:09.536Z,17.31
2018-06-24T18:00:28.862Z,17.29
2018-06-24T18:02:45.649Z,17.21
2018-06-24T18:04:57.918Z,17.03
2018-06-24T18:07:06.348Z,16.70
2018-06-24T18:09:29.636Z,16.97
2018-06-24T18:11:37.828Z,16.88
2018-06-24T18:14:04.640Z,16.30
2018-06-24T18:16:51.333Z,16.89
2018-06-24T18:19:08.913Z,16.91
2018-06-24T18:21:20.477Z,16.73
2018-06-24T18:23:32.420Z,16.76
2018-06-24T18:25:41.988Z,16.79
2018-06-24T18:28:01.246Z,16.75
2018-06-24T18:30:12.748Z,16.85
2018-06-24T18:32:25.878Z,16.76
2018-06-24T18:34:59.461Z,16.84
2018-06-24T18:37:12.585Z,16.10
2018-06-24T18:39:33.727Z,16.87
2018-06-24T18:44:57.177Z,17.06
2018-06-24T18:47:38.450Z,17.25
2018-06-24T18:50:06.022Z,17.01
2018-06-24T18:52:54.854Z,16.88
2018-06-24T19:03:48.312Z,17.07
2018-06-24T19:09:14.987Z,16.95
2018-06-24T19:11:38.217Z,16.98
2018-06-24T19:13:58.621Z,17.14
2018-06-24T19:16:31.611Z,17.13
2018-06-24T19:19:01.745Z,17.04
2018-06-24T19:21:31.297Z,17.06
2018-06-24T19:23:56.904Z,17.07
2018-06-24T19:26:31.669Z,16.94
2018-06-24T19:29:00.195Z,17.11
2018-06-24T19:31:27.406Z,16.93
2018-06-24T19:34:07.378Z,15.88
2018-06-24T19:36:28.707Z,16.88
2018-06-24T19:38:55.920Z,16.58
2018-06-24T19:41:22.539Z,16.83
2018-06-24T19:43:49.447Z,16.03
2018-06-24T19:46:12.833Z,16.57
2018-06-24T19:48:46.403Z,16.31
2018-06-24T19:51:16.721Z,16.62
2018-06-24T19:53:56.031Z,16.37
2018-06-24T19:56:38.427Z,16.32
2018-06-24T19:59:23.665Z,15.13
2018-06-24T20:02:03.093Z,16.37
2018-06-24T20:04:41.872Z,16.00
2018-06-24T20:07:19.048Z,16.01
2018-06-24T20:09:56.227Z,16.43
2018-06-24T20:12:32.607Z,16.09
2018-06-24T20:14:58.348Z,16.01
2018-06-24T20:17:34.017Z,16.09
2018-06-24T20:20:01.751Z,16.01
2018-06-24T20:22:25.742Z,16.03
2018-06-24T20:24:40.780Z,14.16
2018-06-24T20:26:57.500Z,15.56
2018-06-24T20:29:20.070Z,15.65
2018-06-24T20:31:38.616Z,15.84
2018-06-24T20:34:03.108Z,15.64
2018-06-24T20:36:24.122Z,15.59
2018-06-24T20:39:05.557Z,15.67
2018-06-24T20:41:15.649Z,15.68
2018-06-24T20:43:45.132Z,15.63
2018-06-24T20:46:00.770Z,15.46
2018-06-24T20:48:23.126Z,14.76
2018-06-24T20:50:37.559Z,15.58
2018-06-24T20:52:58.667Z,15.72
2018-06-24T20:55:19.451Z,14.93
2018-06-24T20:57:35.952Z,15.65
2018-06-24T21:00:00.114Z,15.34
2018-06-24T21:02:22.870Z,15.50
2018-06-24T21:07:34.245Z,15.47
2018-06-24T21:10:03.918Z,15.00
2018-06-24T21:12:23.648Z,15.49
2018-06-24T21:14:55.995Z,14.94
2018-06-24T21:17:23.272Z,15.62
2018-06-24T21:19:28.457Z,15.63
2018-06-24T21:21:33.700Z,15.94
2018-06-24T21:23:38.926Z,15.65
2018-06-24T21:25:44.125Z,15.54
2018-06-24T21:27:49.273Z,15.40
2018-06-24T21:29:57.197Z,15.41
2018-06-24T21:32:04.178Z,15.58
2018-06-24T21:34:11.722Z,15.59
2018-06-24T21:36:17.977Z,15.59
2018-06-24T21:38:24.149Z,15.57
2018-06-24T21:40:30.000Z,15.72
2018-06-24T21:42:35.334Z,15.47
2018-06-24T21:44:42.031Z,15.56
2018-06-24T21:46:48.711Z,15.72
2018-06-24T21:48:53.640Z,15.60
2018-06-24T21:51:00.430Z,15.66
2018-06-24T21:53:07.044Z,15.33
2018-06-24T21:55:14.600Z,15.65
2018-06-24T21:57:21.682Z,15.53
2018-06-24T21:59:28.513Z,14.52
2018-06-24T22:01:35.932Z,15.45
2018-06-24T22:03:42.521Z,15.38
2018-06-24T22:05:49.604Z,15.61
2018-06-24T22:07:56.705Z,15.39
2018-06-24T22:10:03.711Z,15.40
2018-06-24T22:12:10.432Z,15.48
2018-06-24T22:14:17.642Z,15.33
2018-06-24T22:16:24.756Z,15.52
2018-06-24T22:18:32.240Z,14.49
2018-06-24T22:20:39.382Z,14.75
2018-06-24T22:22:46.220Z,14.74
2018-06-24T22:24:53.240Z,14.83
2018-06-24T22:27:00.512Z,14.19
2018-06-24T22:29:07.752Z,13.83
2018-06-24T22:31:14.702Z,14.38
2018-06-24T22:33:22.034Z,14.97
2018-06-24T22:35:29.024Z,14.73
2018-06-24T22:37:36.189Z,14.88
2018-06-24T22:39:43.010Z,14.75
2018-06-24T22:41:49.855Z,14.91
2018-06-24T22:43:56.999Z,14.88
2018-06-24T22:46:04.164Z,14.84
2018-06-24T22:48:10.987Z,14.77
2018-06-24T22:50:18.137Z,15.16
2018-06-24T22:52:25.541Z,14.87
2018-06-24T22:54:32.946Z,15.09
2018-06-24T22:59:08.374Z,14.94
2018-06-24T23:01:15.588Z,14.30
2018-06-24T23:03:22.702Z,14.87
2018-06-24T23:05:30.025Z,14.60
2018-06-24T23:07:37.163Z,14.66
2018-06-24T23:09:42.515Z,15.21
2018-06-24T23:11:49.158Z,14.93
2018-06-24T23:13:56.128Z,15.08
2018-06-24T23:16:03.337Z,15.00
2018-06-24T23:18:09.900Z,14.51
2018-06-24T23:20:16.601Z,14.81
2018-06-24T23:22:23.632Z,15.25
2018-06-24T23:24:30.189Z,14.99
2018-06-24T23:26:37.461Z,14.94
2018-06-24T23:28:42.676Z,14.55
2018-06-24T23:30:47.831Z,14.93
2018-06-24T23:32:54.613Z,15.02
2018-06-24T23:35:01.695Z,14.95
2018-06-24T23:37:06.571Z,14.91
2018-06-24T23:39:11.450Z,14.75
2018-06-24T23:41:16.372Z,14.22
2018-06-24T23:43:21.349Z,15.08
2018-06-24T23:45:26.286Z,15.09
2018-06-24T23:47:31.229Z,14.31
2018-06-24T23:49:36.021Z,14.90
2018-06-24T23:51:40.919Z,14.82
2018-06-24T23:53:45.806Z,14.36
2018-06-24T23:55:50.704Z,15.02
2018-06-24T23:57:55.556Z,14.87
